sensor_id;sensor_type;location;lat;lon;timestamp;pressure;altitude;pressure_sealevel;temperature;humidity
12973;BME280;6551;51.056;9.466;2022-10-16T00:00:44;97262.44;;;17.04;98.29
12973;BME280;6551;51.056;9.466;2022-10-16T00:03:10;97271.59;;;16.92;98.13
12973;BME280;6551;51.056;9.466;2022-10-16T00:05:43;97269.44;;;16.84;98.98
12973;BME280;6551;51.056;9.466;2022-10-16T00:08:11;97267.81;;;16.78;99.03
12973;BME280;6551;51.056;9.466;2022-10-16T00:10:38;97265.13;;;16.83;99.04
12973;BME280;6551;51.056;9.466;2022-10-16T00:13:04;97280.72;;;16.81;99.03
12973;BME280;6551;51.056;9.466;2022-10-16T00:15:32;97273.19;;;16.88;99.03
12973;BME280;6551;51.056;9.466;2022-10-16T00:17:58;97272.66;;;16.86;99.16
12973;BME280;6551;51.056;9.466;2022-10-16T00:20:24;97276.69;;;16.89;98.94
12973;BME280;6551;51.056;9.466;2022-10-16T00:22:50;97275.91;;;16.93;98.73
12973;BME280;6551;51.056;9.466;2022-10-16T00:25:15;97276.97;;;16.87;99.19
12973;BME280;6551;51.056;9.466;2022-10-16T00:27:41;97272.91;;;16.60;99.41
12973;BME280;6551;51.056;9.466;2022-10-16T00:30:07;97274.69;;;16.29;100.00
12973;BME280;6551;51.056;9.466;2022-10-16T00:32:33;97262.81;;;16.20;100.00
12973;BME280;6551;51.056;9.466;2022-10-16T00:34:59;97275.44;;;16.19;100.00
12973;BME280;6551;51.056;9.466;2022-10-16T00:37:25;97278.41;;;16.13;100.00
12973;BME280;6551;51.056;9.466;2022-10-16T00:39:50;97281.84;;;16.13;100.00
12973;BME280;6551;51.056;9.466;2022-10-16T00:42:18;97278.13;;;16.14;100.00
12973;BME280;6551;51.056;9.466;2022-10-16T00:44:55;97277.09;;;16.30;100.00
12973;BME280;6551;51.056;9.466;2022-10-16T00:50:08;97287.56;;;16.27;100.00
12973;BME280;6551;51.056;9.466;2022-10-16T00:52:35;97298.88;;;16.29;100.00
12973;BME280;6551;51.056;9.466;2022-10-16T00:55:03;97281.09;;;16.23;100.00
12973;BME280;6551;51.056;9.466;2022-10-16T00:57:30;97279.22;;;16.18;100.00
12973;BME280;6551;51.056;9.466;2022-10-16T00:59:57;97281.13;;;16.28;100.00
12973;BME280;6551;51.056;9.466;2022-10-16T01:02:23;97288.41;;;16.37;100.00
12973;BME280;6551;51.056;9.466;2022-10-16T01:04:51;97291.16;;;16.58;100.00
12973;BME280;6551;51.056;9.466;2022-10-16T01:16:13;97291.63;;;16.29;100.00
12973;BME280;6551;51.056;9.466;2022-10-16T01:18:54;97302.09;;;16.41;99.63
12973;BME280;6551;51.056;9.466;2022-10-16T01:21:31;97297.00;;;16.29;99.80
12973;BME280;6551;51.056;9.466;2022-10-16T01:24:31;97297.00;;;16.45;99.48
12973;BME280;6551;51.056;9.466;2022-10-16T01:27:10;97301.25;;;16.25;99.04
12973;BME280;6551;51.056;9.466;2022-10-16T01:29:56;97305.81;;;16.20;99.51
12973;BME280;6551;51.056;9.466;2022-10-16T01:32:28;97306.84;;;16.14;99.79
12973;BME280;6551;51.056;9.466;2022-10-16T01:35:53;97303.41;;;16.23;99.60
12973;BME280;6551;51.056;9.466;2022-10-16T01:38:23;97310.09;;;16.16;99.94
12973;BME280;6551;51.056;9.466;2022-10-16T01:41:00;97316.00;;;16.13;100.00
12973;BME280;6551;51.056;9.466;2022-10-16T01:43:33;97306.63;;;16.20;100.00
12973;BME280;6551;51.056;9.466;2022-10-16T01:46:02;97306.84;;;16.14;100.00
12973;BME280;6551;51.056;9.466;2022-10-16T01:48:29;97314.09;;;16.13;100.00
12973;BME280;6551;51.056;9.466;2022-10-16T01:51:08;97318.69;;;16.13;100.00
12973;BME280;6551;51.056;9.466;2022-10-16T01:53:36;97326.44;;;16.04;100.00
12973;BME280;6551;51.056;9.466;2022-10-16T01:56:06;97330.19;;;16.03;100.00
12973;BME280;6551;51.056;9.466;2022-10-16T01:58:40;97339.66;;;16.16;100.00
12973;BME280;6551;51.056;9.466;2022-10-16T02:01:09;97340.13;;;16.08;100.00
12973;BME280;6551;51.056;9.466;2022-10-16T02:03:38;97349.28;;;16.12;100.00
12973;BME280;6551;51.056;9.466;2022-10-16T02:06:07;97333.25;;;16.27;100.00
12973;BME280;6551;51.056;9.466;2022-10-16T02:08:34;97334.09;;;16.32;99.26
12973;BME280;6551;51.056;9.466;2022-10-16T02:11:01;97329.75;;;16.26;98.77
12973;BME280;6551;51.056;9.466;2022-10-16T02:16:18;97326.41;;;15.99;100.00
12973;BME280;6551;51.056;9.466;2022-10-16T02:18:44;97325.34;;;16.05;100.00
12973;BME280;6551;51.056;9.466;2022-10-16T02:21:28;97311.66;;;16.07;100.00
12973;BME280;6551;51.056;9.466;2022-10-16T02:24:56;97323.50;;;16.11;99.75
12973;BME280;6551;51.056;9.466;2022-10-16T02:27:15;97324.91;;;16.23;98.74
12973;BME280;6551;51.056;9.466;2022-10-16T02:29:47;97332.34;;;16.06;99.29
12973;BME280;6551;51.056;9.466;2022-10-16T02:32:22;97327.72;;;15.97;99.93
12973;BME280;6551;51.056;9.466;2022-10-16T02:34:50;97323.75;;;16.04;99.65
12973;BME280;6551;51.056;9.466;2022-10-16T02:37:18;97328.84;;;16.06;99.52
12973;BME280;6551;51.056;9.466;2022-10-16T02:39:44;97316.22;;;16.01;99.48
12973;BME280;6551;51.056;9.466;2022-10-16T02:42:14;97310.06;;;16.11;99.14
12973;BME280;6551;51.056;9.466;2022-10-16T02:44:40;97315.19;;;16.17;99.05
12973;BME280;6551;51.056;9.466;2022-10-16T02:47:06;97330.78;;;16.20;98.54
12973;BME280;6551;51.056;9.466;2022-10-16T02:49:32;97322.44;;;16.12;99.01
12973;BME280;6551;51.056;9.466;2022-10-16T02:51:58;97340.19;;;16.13;99.21
12973;BME280;6551;51.056;9.466;2022-10-16T02:54:23;97351.22;;;16.21;98.75
12973;BME280;6551;51.056;9.466;2022-10-16T02:56:49;97348.75;;;16.10;98.93
12973;BME280;6551;51.056;9.466;2022-10-16T02:59:15;97359.75;;;16.08;99.23
12973;BME280;6551;51.056;9.466;2022-10-16T03:01:41;97345.41;;;15.88;100.00
12973;BME280;6551;51.056;9.466;2022-10-16T03:04:07;97339.22;;;15.87;100.00
12973;BME280;6551;51.056;9.466;2022-10-16T03:06:32;97332.47;;;15.79;100.00
12973;BME280;6551;51.056;9.466;2022-10-16T03:08:58;97336.06;;;15.53;100.00
12973;BME280;6551;51.056;9.466;2022-10-16T03:11:24;97330.44;;;15.55;100.00
12973;BME280;6551;51.056;9.466;2022-10-16T03:13:49;97358.72;;;15.72;100.00
12973;BME280;6551;51.056;9.466;2022-10-16T03:16:15;97359.84;;;15.76;100.00
12973;BME280;6551;51.056;9.466;2022-10-16T03:18:41;97362.50;;;15.71;100.00
12973;BME280;6551;51.056;9.466;2022-10-16T03:21:07;97360.81;;;15.60;100.00
12973;BME280;6551;51.056;9.466;2022-10-16T03:23:32;97368.09;;;15.65;100.00
12973;BME280;6551;51.056;9.466;2022-10-16T03:25:58;97365.28;;;15.50;100.00
12973;BME280;6551;51.056;9.466;2022-10-16T03:28:24;97363.34;;;15.45;100.00
12973;BME280;6551;51.056;9.466;2022-10-16T03:30:50;97367.53;;;15.63;100.00
12973;BME280;6551;51.056;9.466;2022-10-16T03:33:16;97355.53;;;15.44;100.00
12973;BME280;6551;51.056;9.466;2022-10-16T03:35:41;97361.00;;;15.49;100.00
12973;BME280;6551;51.056;9.466;2022-10-16T03:38:07;97358.88;;;15.56;100.00
12973;BME280;6551;51.056;9.466;2022-10-16T03:40:33;97362.09;;;15.58;100.00
12973;BME280;6551;51.056;9.466;2022-10-16T03:42:58;97356.19;;;15.56;100.00
12973;BME280;6551;51.056;9.466;2022-10-16T03:45:24;97357.81;;;15.57;100.00
12973;BME280;6551;51.056;9.466;2022-10-16T03:47:50;97362.25;;;15.78;100.00
12973;BME280;6551;51.056;9.466;2022-10-16T03:50:16;97363.16;;;15.52;100.00
12973;BME280;6551;51.056;9.466;2022-10-16T03:52:42;97368.59;;;15.62;100.00
12973;BME280;6551;51.056;9.466;2022-10-16T03:55:08;97382.41;;;15.80;100.00
12973;BME280;6551;51.056;9.466;2022-10-16T03:57:33;97382.25;;;15.29;100.00
12973;BME280;6551;51.056;9.466;2022-10-16T03:59:59;97388.50;;;15.39;100.00
12973;BME280;6551;51.056;9.466;2022-10-16T04:02:24;97399.19;;;15.34;100.00
12973;BME280;6551;51.056;9.466;2022-10-16T04:04:50;97391.53;;;15.79;100.00
12973;BME280;6551;51.056;9.466;2022-10-16T04:07:16;97396.56;;;15.66;100.00
12973;BME280;6551;51.056;9.466;2022-10-16T04:09:41;97398.78;;;15.79;99.85
12973;BME280;6551;51.056;9.466;2022-10-16T04:12:07;97399.75;;;15.63;100.00
12973;BME280;6551;51.056;9.466;2022-10-16T04:14:33;97392.53;;;15.68;100.00
12973;BME280;6551;51.056;9.466;2022-10-16T04:16:59;97406.69;;;15.59;100.00
12973;BME280;6551;51.056;9.466;2022-10-16T04:19:25;97407.31;;;15.71;99.48
12973;BME280;6551;51.056;9.466;2022-10-16T04:21:50;97401.97;;;15.76;98.69
12973;BME280;6551;51.056;9.466;2022-10-16T04:24:16;97403.31;;;15.73;98.96
12973;BME280;6551;51.056;9.466;2022-10-16T04:26:42;97395.28;;;15.78;98.55
12973;BME280;6551;51.056;9.466;2022-10-16T04:29:07;97400.13;;;15.82;98.44
12973;BME280;6551;51.056;9.466;2022-10-16T04:31:33;97399.25;;;15.71;98.42
12973;BME280;6551;51.056;9.466;2022-10-16T04:33:59;97405.19;;;15.73;98.62
12973;BME280;6551;51.056;9.466;2022-10-16T04:36:25;97402.50;;;15.73;98.58
12973;BME280;6551;51.056;9.466;2022-10-16T04:38:50;97402.09;;;15.54;99.43
12973;BME280;6551;51.056;9.466;2022-10-16T04:41:16;97406.44;;;15.60;100.00
12973;BME280;6551;51.056;9.466;2022-10-16T04:43:41;97402.69;;;15.66;100.00
12973;BME280;6551;51.056;9.466;2022-10-16T04:46:07;97401.47;;;15.79;99.30
12973;BME280;6551;51.056;9.466;2022-10-16T04:48:33;97391.38;;;15.96;98.04
12973;BME280;6551;51.056;9.466;2022-10-16T04:50:59;97381.81;;;16.10;97.05
12973;BME280;6551;51.056;9.466;2022-10-16T04:53:25;97378.56;;;16.13;96.49
12973;BME280;6551;51.056;9.466;2022-10-16T04:55:50;97377.44;;;15.99;96.36
12973;BME280;6551;51.056;9.466;2022-10-16T04:58:17;97380.53;;;15.81;98.00
12973;BME280;6551;51.056;9.466;2022-10-16T05:00:44;97382.59;;;15.69;98.62
12973;BME280;6551;51.056;9.466;2022-10-16T05:03:12;97377.03;;;15.80;98.69
12973;BME280;6551;51.056;9.466;2022-10-16T05:05:43;97363.75;;;16.06;97.51
12973;BME280;6551;51.056;9.466;2022-10-16T05:08:09;97373.41;;;16.02;96.48
12973;BME280;6551;51.056;9.466;2022-10-16T05:10:35;97372.31;;;15.98;96.58
12973;BME280;6551;51.056;9.466;2022-10-16T05:13:00;97368.50;;;15.89;96.75
12973;BME280;6551;51.056;9.466;2022-10-16T05:15:26;97389.13;;;15.83;96.53
12973;BME280;6551;51.056;9.466;2022-10-16T05:17:54;97382.44;;;15.86;96.31
12973;BME280;6551;51.056;9.466;2022-10-16T05:20:20;97375.19;;;15.86;96.09
12973;BME280;6551;51.056;9.466;2022-10-16T05:22:45;97369.75;;;15.76;96.37
12973;BME280;6551;51.056;9.466;2022-10-16T05:25:11;97376.22;;;15.80;95.89
12973;BME280;6551;51.056;9.466;2022-10-16T05:27:37;97386.13;;;15.74;96.27
12973;BME280;6551;51.056;9.466;2022-10-16T05:30:03;97387.41;;;15.67;96.62
12973;BME280;6551;51.056;9.466;2022-10-16T05:32:28;97385.34;;;15.79;96.58
12973;BME280;6551;51.056;9.466;2022-10-16T05:34:54;97383.69;;;15.73;96.15
12973;BME280;6551;51.056;9.466;2022-10-16T05:37:20;97375.44;;;15.79;95.87
12973;BME280;6551;51.056;9.466;2022-10-16T05:39:45;97373.94;;;15.57;95.90
12973;BME280;6551;51.056;9.466;2022-10-16T05:42:11;97402.63;;;15.56;95.76
12973;BME280;6551;51.056;9.466;2022-10-16T05:44:37;97400.75;;;15.57;94.88
12973;BME280;6551;51.056;9.466;2022-10-16T05:47:02;97402.91;;;15.55;94.72
12973;BME280;6551;51.056;9.466;2022-10-16T05:49:28;97398.03;;;15.52;95.12
12973;BME280;6551;51.056;9.466;2022-10-16T05:51:54;97414.94;;;15.52;95.72
12973;BME280;6551;51.056;9.466;2022-10-16T05:54:19;97421.47;;;15.61;95.04
12973;BME280;6551;51.056;9.466;2022-10-16T05:56:45;97432.66;;;15.53;94.85
12973;BME280;6551;51.056;9.466;2022-10-16T05:59:11;97433.44;;;15.49;94.44
12973;BME280;6551;51.056;9.466;2022-10-16T06:01:36;97427.50;;;15.20;94.27
12973;BME280;6551;51.056;9.466;2022-10-16T06:04:02;97429.28;;;15.09;94.16
12973;BME280;6551;51.056;9.466;2022-10-16T06:06:28;97418.00;;;15.07;93.55
12973;BME280;6551;51.056;9.466;2022-10-16T06:08:56;97418.19;;;15.28;91.92
12973;BME280;6551;51.056;9.466;2022-10-16T06:11:28;97425.13;;;15.23;91.34
12973;BME280;6551;51.056;9.466;2022-10-16T06:13:57;97438.81;;;15.27;90.90
12973;BME280;6551;51.056;9.466;2022-10-16T06:16:25;97455.50;;;15.29;90.83
12973;BME280;6551;51.056;9.466;2022-10-16T06:18:52;97442.03;;;15.24;90.47
12973;BME280;6551;51.056;9.466;2022-10-16T06:21:21;97432.59;;;15.21;90.06
12973;BME280;6551;51.056;9.466;2022-10-16T06:23:48;97419.47;;;14.93;90.25
12973;BME280;6551;51.056;9.466;2022-10-16T06:26:20;97439.34;;;15.24;90.03
12973;BME280;6551;51.056;9.466;2022-10-16T06:28:47;97436.41;;;14.99;90.85
12973;BME280;6551;51.056;9.466;2022-10-16T06:31:13;97453.50;;;15.19;90.87
12973;BME280;6551;51.056;9.466;2022-10-16T06:33:40;97459.41;;;15.21;90.39
12973;BME280;6551;51.056;9.466;2022-10-16T06:36:15;97475.13;;;15.35;89.80
12973;BME280;6551;51.056;9.466;2022-10-16T06:38:43;97467.91;;;15.35;89.47
12973;BME280;6551;51.056;9.466;2022-10-16T06:41:13;97479.88;;;15.01;90.17
12973;BME280;6551;51.056;9.466;2022-10-16T06:43:39;97491.94;;;15.25;89.23
12973;BME280;6551;51.056;9.466;2022-10-16T06:46:06;97487.88;;;15.22;88.92
12973;BME280;6551;51.056;9.466;2022-10-16T06:48:35;97479.84;;;15.22;87.52
12973;BME280;6551;51.056;9.466;2022-10-16T06:51:03;97482.50;;;15.22;87.21
12973;BME280;6551;51.056;9.466;2022-10-16T06:53:32;97484.44;;;15.27;87.01
12973;BME280;6551;51.056;9.466;2022-10-16T06:56:14;97502.97;;;15.29;86.99
12973;BME280;6551;51.056;9.466;2022-10-16T06:58:41;97521.97;;;15.27;86.81
12973;BME280;6551;51.056;9.466;2022-10-16T07:01:07;97524.81;;;15.15;87.59
12973;BME280;6551;51.056;9.466;2022-10-16T07:03:36;97511.25;;;15.27;87.01
12973;BME280;6551;51.056;9.466;2022-10-16T07:06:04;97507.28;;;15.30;87.27
12973;BME280;6551;51.056;9.466;2022-10-16T07:08:35;97509.41;;;15.06;88.39
12973;BME280;6551;51.056;9.466;2022-10-16T07:11:04;97501.47;;;15.16;88.32
12973;BME280;6551;51.056;9.466;2022-10-16T07:13:32;97506.56;;;15.12;88.53
12973;BME280;6551;51.056;9.466;2022-10-16T07:15:58;97525.28;;;15.07;89.52
12973;BME280;6551;51.056;9.466;2022-10-16T07:18:29;97523.25;;;14.98;89.91
12973;BME280;6551;51.056;9.466;2022-10-16T07:21:07;97530.66;;;15.34;89.49
12973;BME280;6551;51.056;9.466;2022-10-16T07:23:33;97536.53;;;15.31;89.87
12973;BME280;6551;51.056;9.466;2022-10-16T07:26:00;97537.03;;;15.06;91.11
12973;BME280;6551;51.056;9.466;2022-10-16T07:28:26;97537.75;;;15.18;91.30
12973;BME280;6551;51.056;9.466;2022-10-16T07:30:51;97539.84;;;15.16;91.75
12973;BME280;6551;51.056;9.466;2022-10-16T07:33:17;97548.69;;;15.17;92.07
12973;BME280;6551;51.056;9.466;2022-10-16T07:35:50;97559.09;;;15.13;92.24
12973;BME280;6551;51.056;9.466;2022-10-16T07:38:16;97556.44;;;15.13;92.23
12973;BME280;6551;51.056;9.466;2022-10-16T07:40:43;97559.97;;;15.19;92.80
12973;BME280;6551;51.056;9.466;2022-10-16T07:43:09;97571.84;;;15.23;93.42
12973;BME280;6551;51.056;9.466;2022-10-16T07:45:35;97569.47;;;15.27;92.73
12973;BME280;6551;51.056;9.466;2022-10-16T07:48:00;97569.22;;;15.28;93.13
12973;BME280;6551;51.056;9.466;2022-10-16T07:50:26;97572.72;;;15.29;93.38
12973;BME280;6551;51.056;9.466;2022-10-16T07:52:52;97573.31;;;15.36;93.36
12973;BME280;6551;51.056;9.466;2022-10-16T07:55:18;97568.59;;;15.43;93.24
12973;BME280;6551;51.056;9.466;2022-10-16T07:57:43;97571.91;;;15.50;93.78
12973;BME280;6551;51.056;9.466;2022-10-16T08:00:10;97568.44;;;15.49;94.07
12973;BME280;6551;51.056;9.466;2022-10-16T08:02:40;97572.28;;;15.58;93.80
12973;BME280;6551;51.056;9.466;2022-10-16T08:05:07;97588.50;;;15.68;93.93
12973;BME280;6551;51.056;9.466;2022-10-16T08:07:32;97593.09;;;15.73;94.16
12973;BME280;6551;51.056;9.466;2022-10-16T08:09:58;97604.75;;;15.84;93.86
12973;BME280;6551;51.056;9.466;2022-10-16T08:12:27;97613.47;;;15.96;94.10
12973;BME280;6551;51.056;9.466;2022-10-16T08:14:53;97618.94;;;16.06;93.47
12973;BME280;6551;51.056;9.466;2022-10-16T08:17:19;97627.03;;;16.11;92.78
12973;BME280;6551;51.056;9.466;2022-10-16T08:19:48;97620.63;;;16.17;92.81
12973;BME280;6551;51.056;9.466;2022-10-16T08:22:14;97612.38;;;16.23;93.72
12973;BME280;6551;51.056;9.466;2022-10-16T08:24:40;97618.00;;;16.22;93.71
12973;BME280;6551;51.056;9.466;2022-10-16T08:27:06;97628.06;;;16.36;93.47
12973;BME280;6551;51.056;9.466;2022-10-16T08:29:32;97624.31;;;16.37;93.96
12973;BME280;6551;51.056;9.466;2022-10-16T08:31:58;97631.59;;;16.42;93.34
12973;BME280;6551;51.056;9.466;2022-10-16T08:34:24;97644.00;;;16.43;93.59
12973;BME280;6551;51.056;9.466;2022-10-16T08:36:49;97639.44;;;16.44;94.04
12973;BME280;6551;51.056;9.466;2022-10-16T08:39:18;97646.44;;;16.50;93.70
12973;BME280;6551;51.056;9.466;2022-10-16T08:42:18;97648.63;;;16.53;93.71
12973;BME280;6551;51.056;9.466;2022-10-16T08:48:29;97656.69;;;16.84;92.44
12973;BME280;6551;51.056;9.466;2022-10-16T08:50:56;97665.06;;;16.88;91.77
12973;BME280;6551;51.056;9.466;2022-10-16T08:53:31;97664.06;;;16.99;91.20
12973;BME280;6551;51.056;9.466;2022-10-16T08:55:59;97669.50;;;17.09;91.08
12973;BME280;6551;51.056;9.466;2022-10-16T08:58:29;97663.34;;;17.19;90.87
12973;BME280;6551;51.056;9.466;2022-10-16T09:01:01;97664.75;;;17.21;91.10
12973;BME280;6551;51.056;9.466;2022-10-16T09:15:31;97673.69;;;17.32;90.67
12973;BME280;6551;51.056;9.466;2022-10-16T09:21:11;97680.09;;;17.26;90.37
12973;BME280;6551;51.056;9.466;2022-10-16T09:23:39;97671.38;;;17.56;90.50
12973;BME280;6551;51.056;9.466;2022-10-16T09:26:10;97675.25;;;17.80;88.53
12973;BME280;6551;51.056;9.466;2022-10-16T09:28:36;97690.66;;;17.99;87.92
12973;BME280;6551;51.056;9.466;2022-10-16T09:31:02;97676.44;;;18.14;86.54
12973;BME280;6551;51.056;9.466;2022-10-16T09:33:33;97683.16;;;18.22;84.70
12973;BME280;6551;51.056;9.466;2022-10-16T09:36:04;97680.28;;;18.53;86.24
12973;BME280;6551;51.056;9.466;2022-10-16T09:38:36;97682.44;;;18.66;83.07
12973;BME280;6551;51.056;9.466;2022-10-16T09:41:18;97681.66;;;18.76;82.41
12973;BME280;6551;51.056;9.466;2022-10-16T09:43:56;97679.97;;;18.40;81.95
12973;BME280;6551;51.056;9.466;2022-10-16T09:46:33;97692.88;;;18.18;82.75
12973;BME280;6551;51.056;9.466;2022-10-16T09:49:18;97690.09;;;17.87;84.18
12973;BME280;6551;51.056;9.466;2022-10-16T09:51:45;97692.81;;;17.92;86.28
12973;BME280;6551;51.056;9.466;2022-10-16T09:54:20;97691.66;;;17.73;83.99
12973;BME280;6551;51.056;9.466;2022-10-16T09:56:46;97709.91;;;17.56;82.23
12973;BME280;6551;51.056;9.466;2022-10-16T09:59:19;97699.22;;;17.29;84.47
12973;BME280;6551;51.056;9.466;2022-10-16T10:01:50;97708.63;;;17.27;84.95
12973;BME280;6551;51.056;9.466;2022-10-16T10:04:21;97705.41;;;17.30;85.33
12973;BME280;6551;51.056;9.466;2022-10-16T10:06:55;97705.84;;;17.53;84.91
12973;BME280;6551;51.056;9.466;2022-10-16T10:09:38;97705.78;;;18.05;83.37
12973;BME280;6551;51.056;9.466;2022-10-16T10:12:06;97702.94;;;18.78;80.71
12973;BME280;6551;51.056;9.466;2022-10-16T10:14:47;97706.97;;;19.05;78.04
12973;BME280;6551;51.056;9.466;2022-10-16T10:17:23;97702.38;;;19.11;76.93
12973;BME280;6551;51.056;9.466;2022-10-16T10:23:24;97717.19;;;19.44;75.41
12973;BME280;6551;51.056;9.466;2022-10-16T10:26:16;97712.00;;;19.72;74.25
12973;BME280;6551;51.056;9.466;2022-10-16T10:29:28;97727.47;;;20.26;71.76
12973;BME280;6551;51.056;9.466;2022-10-16T10:35:11;97728.38;;;20.01;71.16
12973;BME280;6551;51.056;9.466;2022-10-16T10:38:09;97743.84;;;20.45;71.78
12973;BME280;6551;51.056;9.466;2022-10-16T10:40:56;97735.56;;;20.26;69.24
12973;BME280;6551;51.056;9.466;2022-10-16T10:49:16;97720.84;;;19.93;69.56
12973;BME280;6551;51.056;9.466;2022-10-16T10:51:54;97731.75;;;19.63;70.41
12973;BME280;6551;51.056;9.466;2022-10-16T10:57:30;97730.16;;;20.21;68.92
12973;BME280;6551;51.056;9.466;2022-10-16T11:00:42;97743.84;;;20.45;69.12
12973;BME280;6551;51.056;9.466;2022-10-16T11:06:22;97726.09;;;21.35;64.42
12973;BME280;6551;51.056;9.466;2022-10-16T11:09:21;97727.44;;;21.90;63.94
12973;BME280;6551;51.056;9.466;2022-10-16T11:12:00;97731.06;;;22.04;61.73
12973;BME280;6551;51.056;9.466;2022-10-16T11:17:42;97737.31;;;22.60;60.94
12973;BME280;6551;51.056;9.466;2022-10-16T11:20:42;97721.34;;;22.40;59.83
12973;BME280;6551;51.056;9.466;2022-10-16T11:25:43;97732.44;;;23.13;57.42
12973;BME280;6551;51.056;9.466;2022-10-16T11:28:32;97727.75;;;23.33;57.98
12973;BME280;6551;51.056;9.466;2022-10-16T11:34:12;97723.28;;;23.55;56.13
12973;BME280;6551;51.056;9.466;2022-10-16T11:39:31;97727.13;;;23.95;56.39
12973;BME280;6551;51.056;9.466;2022-10-16T11:56:01;97722.91;;;24.52;54.36
12973;BME280;6551;51.056;9.466;2022-10-16T11:59:02;97718.13;;;24.35;53.98
12973;BME280;6551;51.056;9.466;2022-10-16T12:01:44;97722.91;;;23.62;54.96
12973;BME280;6551;51.056;9.466;2022-10-16T12:07:03;97733.66;;;23.53;55.21
12973;BME280;6551;51.056;9.466;2022-10-16T12:09:39;97733.31;;;23.09;56.27
12973;BME280;6551;51.056;9.466;2022-10-16T12:15:33;97726.31;;;23.54;56.29
12973;BME280;6551;51.056;9.466;2022-10-16T12:17:59;97727.09;;;23.41;55.15
12973;BME280;6551;51.056;9.466;2022-10-16T12:20:28;97739.81;;;23.26;55.48
12973;BME280;6551;51.056;9.466;2022-10-16T12:23:02;97738.28;;;22.88;56.19
12973;BME280;6551;51.056;9.466;2022-10-16T12:25:37;97732.66;;;22.85;56.25
12973;BME280;6551;51.056;9.466;2022-10-16T12:28:25;97729.75;;;22.57;57.63
12973;BME280;6551;51.056;9.466;2022-10-16T12:30:56;97728.28;;;22.28;57.61
12973;BME280;6551;51.056;9.466;2022-10-16T12:34:02;97731.00;;;22.28;57.84
12973;BME280;6551;51.056;9.466;2022-10-16T12:36:34;97727.53;;;22.03;58.43
12973;BME280;6551;51.056;9.466;2022-10-16T12:39:01;97728.50;;;21.65;60.01
12973;BME280;6551;51.056;9.466;2022-10-16T12:41:34;97730.28;;;21.51;60.90
12973;BME280;6551;51.056;9.466;2022-10-16T12:44:03;97737.13;;;21.15;61.10
12973;BME280;6551;51.056;9.466;2022-10-16T12:51:42;97730.25;;;20.88;62.27
12973;BME280;6551;51.056;9.466;2022-10-16T12:54:15;97739.69;;;20.96;61.58
12973;BME280;6551;51.056;9.466;2022-10-16T13:00:04;97748.47;;;21.45;62.11
12973;BME280;6551;51.056;9.466;2022-10-16T13:05:45;97759.97;;;21.61;57.54
12973;BME280;6551;51.056;9.466;2022-10-16T13:17:36;97759.25;;;21.27;58.99
12973;BME280;6551;51.056;9.466;2022-10-16T13:20:35;97767.53;;;21.35;58.58
12973;BME280;6551;51.056;9.466;2022-10-16T13:28:29;97770.84;;;21.32;60.22
12973;BME280;6551;51.056;9.466;2022-10-16T13:30:59;97769.00;;;21.23;60.22
12973;BME280;6551;51.056;9.466;2022-10-16T13:33:38;97768.50;;;21.21;59.45
12973;BME280;6551;51.056;9.466;2022-10-16T13:36:06;97765.84;;;21.16;59.29
12973;BME280;6551;51.056;9.466;2022-10-16T13:38:34;97755.59;;;21.02;60.17
12973;BME280;6551;51.056;9.466;2022-10-16T13:41:12;97773.75;;;21.07;60.72
12973;BME280;6551;51.056;9.466;2022-10-16T13:43:49;97776.75;;;21.00;62.57
12973;BME280;6551;51.056;9.466;2022-10-16T13:46:21;97775.97;;;20.95;61.32
12973;BME280;6551;51.056;9.466;2022-10-16T13:49:03;97780.00;;;20.97;61.56
12973;BME280;6551;51.056;9.466;2022-10-16T13:51:34;97791.56;;;21.13;61.57
12973;BME280;6551;51.056;9.466;2022-10-16T13:54:00;97793.69;;;21.21;61.94
12973;BME280;6551;51.056;9.466;2022-10-16T13:56:30;97786.59;;;21.25;61.91
12973;BME280;6551;51.056;9.466;2022-10-16T13:59:06;97790.16;;;21.21;61.13
12973;BME280;6551;51.056;9.466;2022-10-16T14:01:40;97779.09;;;21.17;61.67
12973;BME280;6551;51.056;9.466;2022-10-16T14:04:11;97774.28;;;21.09;62.24
12973;BME280;6551;51.056;9.466;2022-10-16T14:06:42;97782.47;;;20.99;62.75
12973;BME280;6551;51.056;9.466;2022-10-16T14:09:29;97792.75;;;20.97;61.68
12973;BME280;6551;51.056;9.466;2022-10-16T14:12:02;97802.78;;;20.91;62.77
12973;BME280;6551;51.056;9.466;2022-10-16T14:14:53;97796.13;;;20.79;63.14
12973;BME280;6551;51.056;9.466;2022-10-16T14:17:26;97797.97;;;20.83;63.11
12973;BME280;6551;51.056;9.466;2022-10-16T14:19:58;97803.56;;;20.97;63.16
12973;BME280;6551;51.056;9.466;2022-10-16T14:22:36;97800.91;;;20.92;62.87
12973;BME280;6551;51.056;9.466;2022-10-16T14:30:36;97818.72;;;20.59;63.72
12973;BME280;6551;51.056;9.466;2022-10-16T14:33:06;97822.50;;;20.58;63.97
12973;BME280;6551;51.056;9.466;2022-10-16T14:35:37;97816.50;;;20.66;64.07
12973;BME280;6551;51.056;9.466;2022-10-16T14:38:06;97811.88;;;20.67;63.63
12973;BME280;6551;51.056;9.466;2022-10-16T14:40:36;97806.78;;;20.65;64.28
12973;BME280;6551;51.056;9.466;2022-10-16T14:43:04;97806.22;;;20.68;64.00
12973;BME280;6551;51.056;9.466;2022-10-16T14:45:34;97807.06;;;20.59;64.54
12973;BME280;6551;51.056;9.466;2022-10-16T14:48:05;97798.22;;;20.43;64.81
12973;BME280;6551;51.056;9.466;2022-10-16T14:50:40;97802.06;;;20.27;65.15
12973;BME280;6551;51.056;9.466;2022-10-16T14:53:11;97805.66;;;20.07;65.94
12973;BME280;6551;51.056;9.466;2022-10-16T14:55:40;97810.56;;;19.95;66.89
12973;BME280;6551;51.056;9.466;2022-10-16T14:58:16;97816.56;;;19.72;68.45
12973;BME280;6551;51.056;9.466;2022-10-16T15:00:43;97819.00;;;19.63;69.40
12973;BME280;6551;51.056;9.466;2022-10-16T15:03:09;97820.63;;;19.59;69.68
12973;BME280;6551;51.056;9.466;2022-10-16T15:05:35;97816.03;;;19.55;69.90
12973;BME280;6551;51.056;9.466;2022-10-16T15:08:00;97819.28;;;19.62;70.32
12973;BME280;6551;51.056;9.466;2022-10-16T15:10:27;97817.13;;;19.59;70.80
12973;BME280;6551;51.056;9.466;2022-10-16T15:12:54;97826.84;;;19.60;71.90
12973;BME280;6551;51.056;9.466;2022-10-16T15:15:25;97822.25;;;19.60;72.38
12973;BME280;6551;51.056;9.466;2022-10-16T15:17:54;97827.91;;;19.69;72.48
12973;BME280;6551;51.056;9.466;2022-10-16T15:20:28;97828.19;;;19.72;72.31
12973;BME280;6551;51.056;9.466;2022-10-16T15:22:56;97827.09;;;19.73;72.64